sensor_id;sensor_type;location;lat;lon;timestamp;temperature;humidity
21331;DHT22;10824;51.632;4.950;2023-03-16T00:01:08;5.70;34.00
21331;DHT22;10824;51.632;4.950;2023-03-16T00:03:36;5.70;34.50
21331;DHT22;10824;51.632;4.950;2023-03-16T00:06:04;5.70;34.60
21331;DHT22;10824;51.632;4.950;2023-03-16T00:08:31;5.70;35.60
21331;DHT22;10824;51.632;4.950;2023-03-16T00:10:58;5.70;36.30
21331;DHT22;10824;51.632;4.950;2023-03-16T00:13:25;5.70;37.40
21331;DHT22;10824;51.632;4.950;2023-03-16T00:15:57;5.70;37.10
21331;DHT22;10824;51.632;4.950;2023-03-16T00:18:27;5.70;37.70
21331;DHT22;10824;51.632;4.950;2023-03-16T00:20:57;5.70;37.70
21331;DHT22;10824;51.632;4.950;2023-03-16T00:23:25;5.70;38.10
21331;DHT22;10824;51.632;4.950;2023-03-16T00:25:58;5.70;38.70
21331;DHT22;10824;51.632;4.950;2023-03-16T00:28:26;5.70;39.10
21331;DHT22;10824;51.632;4.950;2023-03-16T00:30:53;5.70;39.30
21331;DHT22;10824;51.632;4.950;2023-03-16T00:33:25;5.70;40.00
21331;DHT22;10824;51.632;4.950;2023-03-16T00:35:53;5.80;40.60
21331;DHT22;10824;51.632;4.950;2023-03-16T00:38:33;5.80;40.30
21331;DHT22;10824;51.632;4.950;2023-03-16T00:41:06;5.80;40.60
21331;DHT22;10824;51.632;4.950;2023-03-16T00:43:35;5.80;40.70
21331;DHT22;10824;51.632;4.950;2023-03-16T00:46:10;5.80;42.00
21331;DHT22;10824;51.632;4.950;2023-03-16T00:48:41;5.80;43.00
21331;DHT22;10824;51.632;4.950;2023-03-16T00:51:11;5.80;44.00
21331;DHT22;10824;51.632;4.950;2023-03-16T00:53:42;5.80;44.30
21331;DHT22;10824;51.632;4.950;2023-03-16T00:56:11;5.80;45.30
21331;DHT22;10824;51.632;4.950;2023-03-16T00:58:39;5.80;45.70
21331;DHT22;10824;51.632;4.950;2023-03-16T01:01:16;5.80;46.30
21331;DHT22;10824;51.632;4.950;2023-03-16T01:03:45;5.80;46.70
21331;DHT22;10824;51.632;4.950;2023-03-16T01:06:14;5.80;47.20
21331;DHT22;10824;51.632;4.950;2023-03-16T01:08:43;5.80;48.10
21331;DHT22;10824;51.632;4.950;2023-03-16T01:11:13;5.90;49.20
21331;DHT22;10824;51.632;4.950;2023-03-16T01:13:43;5.80;49.80
21331;DHT22;10824;51.632;4.950;2023-03-16T01:16:13;5.90;50.70
21331;DHT22;10824;51.632;4.950;2023-03-16T01:18:41;5.80;52.00
21331;DHT22;10824;51.632;4.950;2023-03-16T01:21:08;5.80;51.70
21331;DHT22;10824;51.632;4.950;2023-03-16T01:23:36;5.80;52.00
21331;DHT22;10824;51.632;4.950;2023-03-16T01:26:03;5.90;52.00
21331;DHT22;10824;51.632;4.950;2023-03-16T01:28:31;5.80;51.80
21331;DHT22;10824;51.632;4.950;2023-03-16T01:31:04;5.90;51.50
21331;DHT22;10824;51.632;4.950;2023-03-16T01:33:34;5.90;52.10
21331;DHT22;10824;51.632;4.950;2023-03-16T01:36:11;5.90;52.20
21331;DHT22;10824;51.632;4.950;2023-03-16T01:38:52;5.90;51.60
21331;DHT22;10824;51.632;4.950;2023-03-16T01:41:24;5.90;51.70
21331;DHT22;10824;51.632;4.950;2023-03-16T01:43:53;5.90;52.10
21331;DHT22;10824;51.632;4.950;2023-03-16T01:46:27;5.90;53.00
21331;DHT22;10824;51.632;4.950;2023-03-16T01:49:01;5.90;52.50
21331;DHT22;10824;51.632;4.950;2023-03-16T01:54:41;5.90;53.00
21331;DHT22;10824;51.632;4.950;2023-03-16T01:57:23;5.90;52.30
21331;DHT22;10824;51.632;4.950;2023-03-16T02:02:50;5.90;53.00
21331;DHT22;10824;51.632;4.950;2023-03-16T02:08:10;5.90;55.00
21331;DHT22;10824;51.632;4.950;2023-03-16T02:10:39;5.90;56.20
21331;DHT22;10824;51.632;4.950;2023-03-16T02:13:07;5.90;58.20
21331;DHT22;10824;51.632;4.950;2023-03-16T02:15:35;5.90;61.10
21331;DHT22;10824;51.632;4.950;2023-03-16T02:18:03;5.80;63.30
21331;DHT22;10824;51.632;4.950;2023-03-16T02:20:48;5.90;65.00
21331;DHT22;10824;51.632;4.950;2023-03-16T02:23:18;5.80;66.10
21331;DHT22;10824;51.632;4.950;2023-03-16T02:28:30;5.80;67.40
21331;DHT22;10824;51.632;4.950;2023-03-16T02:30:59;5.80;68.30
21331;DHT22;10824;51.632;4.950;2023-03-16T02:33:28;5.70;69.20
21331;DHT22;10824;51.632;4.950;2023-03-16T02:35:57;5.70;70.10
21331;DHT22;10824;51.632;4.950;2023-03-16T02:38:25;5.70;70.10
21331;DHT22;10824;51.632;4.950;2023-03-16T02:41:00;5.70;70.70
21331;DHT22;10824;51.632;4.950;2023-03-16T02:43:32;5.70;71.50
21331;DHT22;10824;51.632;4.950;2023-03-16T02:46:12;5.70;72.50
21331;DHT22;10824;51.632;4.950;2023-03-16T02:48:50;5.70;71.20
21331;DHT22;10824;51.632;4.950;2023-03-16T02:51:19;5.70;71.70
21331;DHT22;10824;51.632;4.950;2023-03-16T02:53:46;5.70;73.30
21331;DHT22;10824;51.632;4.950;2023-03-16T02:56:14;5.70;72.90
21331;DHT22;10824;51.632;4.950;2023-03-16T02:58:41;5.70;72.00
21331;DHT22;10824;51.632;4.950;2023-03-16T03:01:13;5.70;72.80
21331;DHT22;10824;51.632;4.950;2023-03-16T03:03:40;5.70;73.00
21331;DHT22;10824;51.632;4.950;2023-03-16T03:06:07;5.60;73.20
21331;DHT22;10824;51.632;4.950;2023-03-16T03:08:35;5.60;74.00
21331;DHT22;10824;51.632;4.950;2023-03-16T03:11:02;5.60;73.70
21331;DHT22;10824;51.632;4.950;2023-03-16T03:13:29;5.60;73.50
21331;DHT22;10824;51.632;4.950;2023-03-16T03:15:57;5.60;74.40
21331;DHT22;10824;51.632;4.950;2023-03-16T03:18:26;5.60;73.50
21331;DHT22;10824;51.632;4.950;2023-03-16T03:20:58;5.60;74.20
21331;DHT22;10824;51.632;4.950;2023-03-16T03:23:25;5.60;73.90
21331;DHT22;10824;51.632;4.950;2023-03-16T03:25:59;5.60;73.70
21331;DHT22;10824;51.632;4.950;2023-03-16T03:28:27;5.70;74.40
21331;DHT22;10824;51.632;4.950;2023-03-16T03:30:55;5.60;74.30
21331;DHT22;10824;51.632;4.950;2023-03-16T03:33:22;5.60;72.80
21331;DHT22;10824;51.632;4.950;2023-03-16T03:35:57;5.60;72.80
21331;DHT22;10824;51.632;4.950;2023-03-16T03:38:31;5.60;72.10
21331;DHT22;10824;51.632;4.950;2023-03-16T03:40:58;5.60;71.70
21331;DHT22;10824;51.632;4.950;2023-03-16T03:43:30;5.70;72.80
21331;DHT22;10824;51.632;4.950;2023-03-16T03:45:59;5.70;71.10
21331;DHT22;10824;51.632;4.950;2023-03-16T03:48:29;5.70;71.60
21331;DHT22;10824;51.632;4.950;2023-03-16T03:50:56;5.70;71.60
21331;DHT22;10824;51.632;4.950;2023-03-16T03:53:42;5.70;71.10
21331;DHT22;10824;51.632;4.950;2023-03-16T03:56:32;5.70;71.60
21331;DHT22;10824;51.632;4.950;2023-03-16T03:58:59;5.70;72.40
21331;DHT22;10824;51.632;4.950;2023-03-16T04:01:56;5.70;72.00
21331;DHT22;10824;51.632;4.950;2023-03-16T04:04:28;5.70;72.50
21331;DHT22;10824;51.632;4.950;2023-03-16T04:06:55;5.70;71.90
21331;DHT22;10824;51.632;4.950;2023-03-16T04:09:23;5.70;73.60
21331;DHT22;10824;51.632;4.950;2023-03-16T04:11:50;5.70;74.00
21331;DHT22;10824;51.632;4.950;2023-03-16T04:14:17;5.70;74.50
21331;DHT22;10824;51.632;4.950;2023-03-16T04:16:44;5.70;74.00
21331;DHT22;10824;51.632;4.950;2023-03-16T04:19:12;5.70;74.20
21331;DHT22;10824;51.632;4.950;2023-03-16T04:21:40;5.70;74.60
21331;DHT22;10824;51.632;4.950;2023-03-16T04:24:07;5.70;74.50
21331;DHT22;10824;51.632;4.950;2023-03-16T04:26:35;5.60;74.50
21331;DHT22;10824;51.632;4.950;2023-03-16T04:29:03;5.60;75.70
21331;DHT22;10824;51.632;4.950;2023-03-16T04:31:32;5.70;75.90
21331;DHT22;10824;51.632;4.950;2023-03-16T04:33:59;5.60;75.40
21331;DHT22;10824;51.632;4.950;2023-03-16T04:36:29;5.70;74.70
21331;DHT22;10824;51.632;4.950;2023-03-16T04:38:56;5.60;76.10
21331;DHT22;10824;51.632;4.950;2023-03-16T04:41:24;5.70;76.90
21331;DHT22;10824;51.632;4.950;2023-03-16T04:44:05;5.60;77.00
21331;DHT22;10824;51.632;4.950;2023-03-16T04:46:33;5.60;77.80
21331;DHT22;10824;51.632;4.950;2023-03-16T04:49:05;5.60;79.70
21331;DHT22;10824;51.632;4.950;2023-03-16T04:51:36;5.60;80.10
21331;DHT22;10824;51.632;4.950;2023-03-16T04:54:08;5.60;81.20
21331;DHT22;10824;51.632;4.950;2023-03-16T04:56:39;5.60;81.90
21331;DHT22;10824;51.632;4.950;2023-03-16T04:59:25;5.50;84.10
21331;DHT22;10824;51.632;4.950;2023-03-16T05:02:01;5.50;84.40
21331;DHT22;10824;51.632;4.950;2023-03-16T05:04:30;5.50;85.20
21331;DHT22;10824;51.632;4.950;2023-03-16T05:07:01;5.50;85.90
21331;DHT22;10824;51.632;4.950;2023-03-16T05:09:32;5.50;86.90
21331;DHT22;10824;51.632;4.950;2023-03-16T05:12:00;5.50;87.80
21331;DHT22;10824;51.632;4.950;2023-03-16T05:14:28;5.50;88.50
21331;DHT22;10824;51.632;4.950;2023-03-16T05:17:13;5.50;88.90
21331;DHT22;10824;51.632;4.950;2023-03-16T05:19:42;5.50;89.20
21331;DHT22;10824;51.632;4.950;2023-03-16T05:22:10;5.50;88.50
21331;DHT22;10824;51.632;4.950;2023-03-16T05:24:44;5.50;89.20
21331;DHT22;10824;51.632;4.950;2023-03-16T05:27:11;5.50;90.00
21331;DHT22;10824;51.632;4.950;2023-03-16T05:29:38;5.50;89.80
21331;DHT22;10824;51.632;4.950;2023-03-16T05:32:06;5.50;89.40
21331;DHT22;10824;51.632;4.950;2023-03-16T05:34:33;5.50;89.70
21331;DHT22;10824;51.632;4.950;2023-03-16T05:37:00;5.40;89.70
21331;DHT22;10824;51.632;4.950;2023-03-16T05:39:27;5.50;90.30
21331;DHT22;10824;51.632;4.950;2023-03-16T05:41:57;5.50;90.60
21331;DHT22;10824;51.632;4.950;2023-03-16T05:44:50;5.40;91.20
21331;DHT22;10824;51.632;4.950;2023-03-16T05:47:43;5.40;91.10
21331;DHT22;10824;51.632;4.950;2023-03-16T05:50:12;5.50;91.90
21331;DHT22;10824;51.632;4.950;2023-03-16T05:52:44;5.50;92.00
21331;DHT22;10824;51.632;4.950;2023-03-16T05:55:17;5.50;91.60
21331;DHT22;10824;51.632;4.950;2023-03-16T05:57:50;5.50;90.20
21331;DHT22;10824;51.632;4.950;2023-03-16T06:00:18;5.50;91.00
21331;DHT22;10824;51.632;4.950;2023-03-16T06:02:53;5.50;91.70
21331;DHT22;10824;51.632;4.950;2023-03-16T06:05:25;5.50;91.90
21331;DHT22;10824;51.632;4.950;2023-03-16T06:07:54;5.50;91.30
21331;DHT22;10824;51.632;4.950;2023-03-16T06:10:23;5.50;91.80
21331;DHT22;10824;51.632;4.950;2023-03-16T06:12:52;5.50;92.00
21331;DHT22;10824;51.632;4.950;2023-03-16T06:15:20;5.50;93.60
21331;DHT22;10824;51.632;4.950;2023-03-16T06:17:51;5.40;93.50
21331;DHT22;10824;51.632;4.950;2023-03-16T06:20:19;5.50;94.00
21331;DHT22;10824;51.632;4.950;2023-03-16T06:22:46;5.50;95.00
21331;DHT22;10824;51.632;4.950;2023-03-16T06:25:13;5.50;94.50
21331;DHT22;10824;51.632;4.950;2023-03-16T06:27:42;5.50;94.90
21331;DHT22;10824;51.632;4.950;2023-03-16T06:30:13;5.50;95.70
21331;DHT22;10824;51.632;4.950;2023-03-16T06:32:41;5.50;96.30
21331;DHT22;10824;51.632;4.950;2023-03-16T06:35:08;5.50;96.50
21331;DHT22;10824;51.632;4.950;2023-03-16T06:37:39;5.50;96.30
21331;DHT22;10824;51.632;4.950;2023-03-16T06:40:28;5.50;96.30
21331;DHT22;10824;51.632;4.950;2023-03-16T06:42:56;5.50;96.30
21331;DHT22;10824;51.632;4.950;2023-03-16T06:45:23;5.60;95.60
21331;DHT22;10824;51.632;4.950;2023-03-16T06:47:53;5.60;94.70
21331;DHT22;10824;51.632;4.950;2023-03-16T06:50:22;5.60;95.20
21331;DHT22;10824;51.632;4.950;2023-03-16T06:52:49;5.60;94.40
21331;DHT22;10824;51.632;4.950;2023-03-16T06:55:16;5.70;94.70
21331;DHT22;10824;51.632;4.950;2023-03-16T06:57:45;5.70;94.20
21331;DHT22;10824;51.632;4.950;2023-03-16T07:00:14;5.70;93.40
21331;DHT22;10824;51.632;4.950;2023-03-16T07:02:41;5.70;92.10
21331;DHT22;10824;51.632;4.950;2023-03-16T07:05:12;5.80;92.00
21331;DHT22;10824;51.632;4.950;2023-03-16T07:07:40;5.80;92.10
21331;DHT22;10824;51.632;4.950;2023-03-16T07:10:13;5.80;91.20
21331;DHT22;10824;51.632;4.950;2023-03-16T07:12:41;5.80;90.20
21331;DHT22;10824;51.632;4.950;2023-03-16T07:15:09;5.90;90.20
21331;DHT22;10824;51.632;4.950;2023-03-16T07:17:40;5.90;89.40
21331;DHT22;10824;51.632;4.950;2023-03-16T07:20:09;5.90;89.40
21331;DHT22;10824;51.632;4.950;2023-03-16T07:22:38;6.00;89.40
21331;DHT22;10824;51.632;4.950;2023-03-16T07:25:08;6.00;87.30
21331;DHT22;10824;51.632;4.950;2023-03-16T07:27:42;6.00;86.70
21331;DHT22;10824;51.632;4.950;2023-03-16T07:30:13;6.00;85.90
21331;DHT22;10824;51.632;4.950;2023-03-16T07:32:44;6.10;84.80
21331;DHT22;10824;51.632;4.950;2023-03-16T07:35:11;6.10;82.80
21331;DHT22;10824;51.632;4.950;2023-03-16T07:37:38;6.20;82.70
21331;DHT22;10824;51.632;4.950;2023-03-16T07:40:07;6.20;80.50
21331;DHT22;10824;51.632;4.950;2023-03-16T07:42:36;6.20;79.20
21331;DHT22;10824;51.632;4.950;2023-03-16T07:45:14;6.20;78.80
21331;DHT22;10824;51.632;4.950;2023-03-16T07:47:44;6.30;77.40
21331;DHT22;10824;51.632;4.950;2023-03-16T07:50:19;6.40;76.50
21331;DHT22;10824;51.632;4.950;2023-03-16T07:52:48;6.50;77.80
21331;DHT22;10824;51.632;4.950;2023-03-16T07:55:15;6.50;74.60
21331;DHT22;10824;51.632;4.950;2023-03-16T07:57:45;6.50;73.60
21331;DHT22;10824;51.632;4.950;2023-03-16T08:00:24;6.60;70.80
21331;DHT22;10824;51.632;4.950;2023-03-16T08:02:51;6.60;70.90
21331;DHT22;10824;51.632;4.950;2023-03-16T08:05:19;6.70;67.50
21331;DHT22;10824;51.632;4.950;2023-03-16T08:07:52;6.70;64.50
21331;DHT22;10824;51.632;4.950;2023-03-16T08:10:23;6.70;66.40
21331;DHT22;10824;51.632;4.950;2023-03-16T08:12:58;6.70;65.40
21331;DHT22;10824;51.632;4.950;2023-03-16T08:15:26;6.80;65.40
21331;DHT22;10824;51.632;4.950;2023-03-16T08:18:00;6.80;60.30
21331;DHT22;10824;51.632;4.950;2023-03-16T08:20:34;6.80;62.00
21331;DHT22;10824;51.632;4.950;2023-03-16T08:23:02;6.90;61.90
21331;DHT22;10824;51.632;4.950;2023-03-16T08:25:36;6.90;62.00
21331;DHT22;10824;51.632;4.950;2023-03-16T08:28:09;6.90;60.80
21331;DHT22;10824;51.632;4.950;2023-03-16T08:30:44;7.00;59.80
21331;DHT22;10824;51.632;4.950;2023-03-16T08:33:40;7.00;58.70
21331;DHT22;10824;51.632;4.950;2023-03-16T08:36:10;7.00;59.10
21331;DHT22;10824;51.632;4.950;2023-03-16T08:38:37;7.10;55.80
21331;DHT22;10824;51.632;4.950;2023-03-16T08:41:09;7.10;57.10
21331;DHT22;10824;51.632;4.950;2023-03-16T08:43:40;7.10;56.00
21331;DHT22;10824;51.632;4.950;2023-03-16T08:46:09;7.20;56.00
21331;DHT22;10824;51.632;4.950;2023-03-16T08:48:46;7.20;56.10
21331;DHT22;10824;51.632;4.950;2023-03-16T08:51:15;7.20;55.20
21331;DHT22;10824;51.632;4.950;2023-03-16T08:53:43;7.30;54.70
21331;DHT22;10824;51.632;4.950;2023-03-16T08:56:11;7.40;53.60
21331;DHT22;10824;51.632;4.950;2023-03-16T08:58:41;7.50;53.00
21331;DHT22;10824;51.632;4.950;2023-03-16T09:01:15;7.60;52.00
21331;DHT22;10824;51.632;4.950;2023-03-16T09:03:43;7.70;51.70
21331;DHT22;10824;51.632;4.950;2023-03-16T09:06:15;7.70;50.10
21331;DHT22;10824;51.632;4.950;2023-03-16T09:08:43;7.90;50.40
21331;DHT22;10824;51.632;4.950;2023-03-16T09:11:14;7.90;47.90
21331;DHT22;10824;51.632;4.950;2023-03-16T09:13:42;8.00;46.20
21331;DHT22;10824;51.632;4.950;2023-03-16T09:16:12;8.00;46.10
21331;DHT22;10824;51.632;4.950;2023-03-16T09:18:40;8.10;45.80
21331;DHT22;10824;51.632;4.950;2023-03-16T09:21:09;8.10;43.10
21331;DHT22;10824;51.632;4.950;2023-03-16T09:23:40;8.20;44.40
21331;DHT22;10824;51.632;4.950;2023-03-16T09:26:10;8.30;44.00
21331;DHT22;10824;51.632;4.950;2023-03-16T09:28:39;8.40;40.00
21331;DHT22;10824;51.632;4.950;2023-03-16T09:31:12;8.70;39.90
21331;DHT22;10824;51.632;4.950;2023-03-16T09:33:41;8.90;41.20
21331;DHT22;10824;51.632;4.950;2023-03-16T09:36:12;9.10;37.20
21331;DHT22;10824;51.632;4.950;2023-03-16T09:38:40;9.00;36.50
21331;DHT22;10824;51.632;4.950;2023-03-16T09:46:40;9.20;36.50
21331;DHT22;10824;51.632;4.950;2023-03-16T09:49:11;9.30;35.40
21331;DHT22;10824;51.632;4.950;2023-03-16T09:55:00;9.40;30.30
21331;DHT22;10824;51.632;4.950;2023-03-16T09:57:32;9.50;29.80
21331;DHT22;10824;51.632;4.950;2023-03-16T10:00:21;9.70;29.90
21331;DHT22;10824;51.632;4.950;2023-03-16T10:05:56;9.90;29.10
21331;DHT22;10824;51.632;4.950;2023-03-16T10:11:17;10.00;25.90
21331;DHT22;10824;51.632;4.950;2023-03-16T10:14:14;10.10;27.00
21331;DHT22;10824;51.632;4.950;2023-03-16T10:16:56;10.00;26.00
21331;DHT22;10824;51.632;4.950;2023-03-16T10:19:30;10.00;26.40
21331;DHT22;10824;51.632;4.950;2023-03-16T10:22:02;10.00;25.30
21331;DHT22;10824;51.632;4.950;2023-03-16T10:25:00;10.00;24.60
21331;DHT22;10824;51.632;4.950;2023-03-16T10:27:31;10.20;23.80
21331;DHT22;10824;51.632;4.950;2023-03-16T10:30:02;10.30;23.60
21331;DHT22;10824;51.632;4.950;2023-03-16T10:32:31;10.50;19.70
21331;DHT22;10824;51.632;4.950;2023-03-16T10:35:02;10.60;20.50
21331;DHT22;10824;51.632;4.950;2023-03-16T10:37:32;10.70;23.50
21331;DHT22;10824;51.632;4.950;2023-03-16T10:39:59;10.90;19.80
21331;DHT22;10824;51.632;4.950;2023-03-16T10:42:26;11.00;18.80
21331;DHT22;10824;51.632;4.950;2023-03-16T10:44:58;11.00;17.70
21331;DHT22;10824;51.632;4.950;2023-03-16T10:47:31;11.10;15.90
21331;DHT22;10824;51.632;4.950;2023-03-16T10:50:10;11.10;18.60
21331;DHT22;10824;51.632;4.950;2023-03-16T10:52:46;11.30;15.20
21331;DHT22;10824;51.632;4.950;2023-03-16T10:55:23;11.40;11.50
21331;DHT22;10824;51.632;4.950;2023-03-16T10:57:56;11.40;11.70
21331;DHT22;10824;51.632;4.950;2023-03-16T11:00:35;11.60;12.40
21331;DHT22;10824;51.632;4.950;2023-03-16T11:03:26;11.60;13.50
21331;DHT22;10824;51.632;4.950;2023-03-16T11:06:21;11.50;11.60
21331;DHT22;10824;51.632;4.950;2023-03-16T11:08:53;11.60;12.60
21331;DHT22;10824;51.632;4.950;2023-03-16T11:11:26;11.80;14.40
21331;DHT22;10824;51.632;4.950;2023-03-16T11:13:58;11.50;6.20
21331;DHT22;10824;51.632;4.950;2023-03-16T11:16:38;11.60;8.80
21331;DHT22;10824;51.632;4.950;2023-03-16T11:19:17;11.60;9.20
21331;DHT22;10824;51.632;4.950;2023-03-16T11:21:53;11.60;7.80
21331;DHT22;10824;51.632;4.950;2023-03-16T11:27:03;11.70;6.90
21331;DHT22;10824;51.632;4.950;2023-03-16T11:32:16;11.80;4.90
21331;DHT22;10824;51.632;4.950;2023-03-16T11:34:44;11.80;6.40
21331;DHT22;10824;51.632;4.950;2023-03-16T11:42:58;11.90;4.40
21331;DHT22;10824;51.632;4.950;2023-03-16T11:56:51;12.30;1.00
21331;DHT22;10824;51.632;4.950;2023-03-16T12:15:44;12.80;1.00
21331;DHT22;10824;51.632;4.950;2023-03-16T12:18:17;12.80;1.00
21331;DHT22;10824;51.632;4.950;2023-03-16T12:20:54;13.00;1.00
21331;DHT22;10824;51.632;4.950;2023-03-16T12:23:30;13.10;1.00
21331;DHT22;10824;51.632;4.950;2023-03-16T12:25:58;13.10;1.00
21331;DHT22;10824;51.632;4.950;2023-03-16T12:28:28;13.10;1.00
21331;DHT22;10824;51.632;4.950;2023-03-16T12:31:14;13.20;1.00
21331;DHT22;10824;51.632;4.950;2023-03-16T12:39:28;13.50;1.00
21331;DHT22;10824;51.632;4.950;2023-03-16T12:44:55;13.60;1.00
21331;DHT22;10824;51.632;4.950;2023-03-16T12:47:31;13.70;1.00
21331;DHT22;10824;51.632;4.950;2023-03-16T12:50:08;13.80;1.00
21331;DHT22;10824;51.632;4.950;2023-03-16T12:52:45;13.80;1.00
21331;DHT22;10824;51.632;4.950;2023-03-16T12:55:19;13.90;1.00
21331;DHT22;10824;51.632;4.950;2023-03-16T12:57:49;14.00;1.00
21331;DHT22;10824;51.632;4.950;2023-03-16T13:00:17;14.10;1.00
21331;DHT22;10824;51.632;4.950;2023-03-16T13:02:52;14.10;1.00
21331;DHT22;10824;51.632;4.950;2023-03-16T13:05:30;14.10;1.00
21331;DHT22;10824;51.632;4.950;2023-03-16T13:08:13;14.30;1.00
21331;DHT22;10824;51.632;4.950;2023-03-16T13:10:41;14.10;1.00
21331;DHT22;10824;51.632;4.950;2023-03-16T13:13:14;14.00;1.00
21331;DHT22;10824;51.632;4.950;2023-03-16T13:15:43;13.90;1.00
21331;DHT22;10824;51.632;4.950;2023-03-16T13:23:20;14.00;1.00
21331;DHT22;10824;51.632;4.950;2023-03-16T13:26:25;14.30;1.00
21331;DHT22;10824;51.632;4.950;2023-03-16T13:28:54;14.10;1.00
21331;DHT22;10824;51.632;4.950;2023-03-16T13:31:39;14.30;1.00
21331;DHT22;10824;51.632;4.950;2023-03-16T13:34:13;14.60;1.00
21331;DHT22;10824;51.632;4.950;2023-03-16T13:36:41;14.60;1.00
21331;DHT22;10824;51.632;4.950;2023-03-16T13:39:40;14.60;1.00
21331;DHT22;10824;51.632;4.950;2023-03-16T13:44:40;14.70;1.00
21331;DHT22;10824;51.632;4.950;2023-03-16T13:47:11;14.50;1.00
21331;DHT22;10824;51.632;4.950;2023-03-16T13:49:53;14.60;1.00
21331;DHT22;10824;51.632;4.950;2023-03-16T13:52:29;14.70;1.00
21331;DHT22;10824;51.632;4.950;2023-03-16T13:54:58;14.60;1.00
21331;DHT22;10824;51.632;4.950;2023-03-16T13:57:37;14.80;1.00
21331;DHT22;10824;51.632;4.950;2023-03-16T14:02:51;14.70;1.00
21331;DHT22;10824;51.632;4.950;2023-03-16T14:07:49;14.80;1.00
21331;DHT22;10824;51.632;4.950;2023-03-16T14:10:23;15.00;1.00
21331;DHT22;10824;51.632;4.950;2023-03-16T14:12:53;15.10;1.00
21331;DHT22;10824;51.632;4.950;2023-03-16T14:15:25;14.80;1.00
21331;DHT22;10824;51.632;4.950;2023-03-16T14:18:11;14.90;1.00
21331;DHT22;10824;51.632;4.950;2023-03-16T14:20:39;15.00;1.00
21331;DHT22;10824;51.632;4.950;2023-03-16T14:23:24;15.10;1.00
21331;DHT22;10824;51.632;4.950;2023-03-16T14:25:54;15.10;1.00
21331;DHT22;10824;51.632;4.950;2023-03-16T14:28:27;15.30;1.00
21331;DHT22;10824;51.632;4.950;2023-03-16T14:31:09;15.30;1.00
21331;DHT22;10824;51.632;4.950;2023-03-16T14:33:41;15.00;1.00
21331;DHT22;10824;51.632;4.950;2023-03-16T14:36:11;15.10;1.00
21331;DHT22;10824;51.632;4.950;2023-03-16T14:38:40;14.90;1.00
21331;DHT22;10824;51.632;4.950;2023-03-16T14:43:44;14.90;1.00
21331;DHT22;10824;51.632;4.950;2023-03-16T14:46:15;14.90;1.00
21331;DHT22;10824;51.632;4.950;2023-03-16T14:48:43;14.90;1.00
21331;DHT22;10824;51.632;4.950;2023-03-16T14:51:12;14.80;1.00
21331;DHT22;10824;51.632;4.950;2023-03-16T14:53:40;14.90;1.00
21331;DHT22;10824;51.632;4.950;2023-03-16T14:56:11;14.80;1.00
21331;DHT22;10824;51.632;4.950;2023-03-16T14:58:39;14.80;1.00
21331;DHT22;10824;51.632;4.950;2023-03-16T15:01:13;14.90;1.00
21331;DHT22;10824;51.632;4.950;2023-03-16T15:03:42;15.00;1.00
21331;DHT22;10824;51.632;4.950;2023-03-16T15:06:10;15.00;1.00
21331;DHT22;10824;51.632;4.950;2023-03-16T15:08:39;14.90;1.00
21331;DHT22;10824;51.632;4.950;2023-03-16T15:11:10;15.00;1.00
21331;DHT22;10824;51.632;4.950;2023-03-16T15:13:37;15.00;1.00
21331;DHT22;10824;51.632;4.950;2023-03-16T15:16:11;14.80;1.00
21331;DHT22;10824;51.632;4.950;2023-03-16T15:18:40;14.80;1.00
21331;DHT22;10824;51.632;4.950;2023-03-16T15:21:12;14.70;1.00
21331;DHT22;10824;51.632;4.950;2023-03-16T15:23:41;14.80;1.00
21331;DHT22;10824;51.632;4.950;2023-03-16T15:26:10;14.80;1.00
21331;DHT22;10824;51.632;4.950;2023-03-16T15:28:38;14.90;1.00
21331;DHT22;10824;51.632;4.950;2023-03-16T15:31:05;14.90;1.00
21331;DHT22;10824;51.632;4.950;2023-03-16T15:33:33;14.70;1.00
21331;DHT22;10824;51.632;4.950;2023-03-16T15:36:01;14.50;1.00
21331;DHT22;10824;51.632;4.950;2023-03-16T15:38:33;14.50;1.00
21331;DHT22;10824;51.632;4.950;2023-03-16T15:41:02;14.50;1.00
21331;DHT22;10824;51.632;4.950;2023-03-16T15:43:30;14.40;1.00
21331;DHT22;10824;51.632;4.950;2023-03-16T15:45:58;14.20;1.00
21331;DHT22;10824;51.632;4.950;2023-03-16T15:48:28;14.10;1.00
21331;DHT22;10824;51.632;4.950;2023-03-16T15:50:56;14.00;1.00
21331;DHT22;10824;51.632;4.950;2023-03-16T15:53:30;14.00;1.00
21331;DHT22;10824;51.632;4.950;2023-03-16T15:56:07;14.00;1.00
21331;DHT22;10824;51.632;4.950;2023-03-16T15:58:35;14.00;1.00
21331;DHT22;10824;51.632;4.950;2023-03-16T16:01:04;14.00;1.00
21331;DHT22;10824;51.632;4.950;2023-03-16T16:03:33;14.00;1.00
21331;DHT22;10824;51.632;4.950;2023-03-16T16:06:01;13.90;1.00
21331;DHT22;10824;51.632;4.950;2023-03-16T16:08:28;13.90;1.00
21331;DHT22;10824;51.632;4.950;2023-03-16T16:10:55;13.80;1.00
21331;DHT22;10824;51.632;4.950;2023-03-16T16:13:26;13.80;1.00
21331;DHT22;10824;51.632;4.950;2023-03-16T16:16:13;13.60;1.00
21331;DHT22;10824;51.632;4.950;2023-03-16T16:18:42;13.60;1.00
21331;DHT22;10824;51.632;4.950;2023-03-16T16:21:19;13.60;1.00
21331;DHT22;10824;51.632;4.950;2023-03-16T16:23:50;13.60;1.00
21331;DHT22;10824;51.632;4.950;2023-03-16T16:26:31;13.60;1.00
21331;DHT22;10824;51.632;4.950;2023-03-16T16:29:23;13.60;1.00
21331;DHT22;10824;51.632;4.950;2023-03-16T16:31:51;13.60;1.00
21331;DHT22;10824;51.632;4.950;2023-03-16T16:34:20;13.60;1.00
21331;DHT22;10824;51.632;4.950;2023-03-16T16:36:54;13.60;1.00
21331;DHT22;10824;51.632;4.950;2023-03-16T16:39:22;13.60;1.00
21331;DHT22;10824;51.632;4.950;2023-03-16T16:41:51;13.50;1.00
21331;DHT22;10824;51.632;4.950;2023-03-16T16:44:23;13.50;1.00
21331;DHT22;10824;51.632;4.950;2023-03-16T16:46:51;13.50;1.00
21331;DHT22;10824;51.632;4.950;2023-03-16T16:49:22;13.50;1.00
21331;DHT22;10824;51.632;4.950;2023-03-16T16:51:51;13.50;1.00
21331;DHT22;10824;51.632;4.950;2023-03-16T16:54:23;13.40;1.00
21331;DHT22;10824;51.632;4.950;2023-03-16T16:56:53;13.40;1.00
21331;DHT22;10824;51.632;4.950;2023-03-16T16:59:23;13.30;1.00
21331;DHT22;10824;51.632;4.950;2023-03-16T17:01:51;13.30;1.00
21331;DHT22;10824;51.632;4.950;2023-03-16T17:04:24;13.30;1.00
21331;DHT22;10824;51.632;4.950;2023-03-16T17:06:53;13.20;1.00
21331;DHT22;10824;51.632;4.950;2023-03-16T17:09:22;13.20;1.00
21331;DHT22;10824;51.632;4.950;2023-03-16T17:11:50;13.20;1.00
21331;DHT22;10824;51.632;4.950;2023-03-16T17:14:19;13.10;1.00
21331;DHT22;10824;51.632;4.950;2023-03-16T17:16:47;13.00;1.00
21331;DHT22;10824;51.632;4.950;2023-03-16T17:19:19;13.00;1.00
21331;DHT22;10824;51.632;4.950;2023-03-16T17:21:50;12.90;1.00
21331;DHT22;10824;51.632;4.950;2023-03-16T17:24:17;12.80;1.00
21331;DHT22;10824;51.632;4.950;2023-03-16T17:26:50;12.80;1.00
21331;DHT22;10824;51.632;4.950;2023-03-16T17:29:23;12.80;1.00
21331;DHT22;10824;51.632;4.950;2023-03-16T17:31:51;12.70;1.00
21331;DHT22;10824;51.632;4.950;2023-03-16T17:34:22;12.70;1.00
21331;DHT22;10824;51.632;4.950;2023-03-16T17:36:50;12.60;1.00
21331;DHT22;10824;51.632;4.950;2023-03-16T17:39:26;12.60;1.00
21331;DHT22;10824;51.632;4.950;2023-03-16T17:41:59;12.50;1.00